Terminal Aerodrome Forecast
Issued by NWS

Home | Current Version | Previous Version | Text Only | Print | Product List | Glossary On
Versions: 1 2 3 4 5 6 7 8 9 10 11 12 13 14 15 16 17 18 19 20
033
FTUS44 KOHX 061720
TAFCKV
TAF
KCKV 061720Z 0618/0718 34012G20KT P6SM SCT050
     FM070100 30005KT P6SM SKC
     FM071600 26012G23KT P6SM FEW060=

USA.gov is the U.S. government's official web portal to all federal, state and local government web resources and services.